Time;durP1;ratioP1;P1;durP2;ratioP2;P2;SDS_P1;SDS_P2;PMS_P1;PMS_P2;Temp;Humidity;BMP_temperature;BMP_pressure;BME280_temperature;BME280_humidity;BME280_pressure;Samples;Min_cycle;Max_cycle;Signal;HPM_P1;HPM_P2
2020/12/07 00:03:13;;;;;;;45.57;24.90;;;5.60;99.90;;;;;;10249212;28;20212;-75
2020/12/07 00:08:36;;;;;;;46.47;26.60;;;5.50;99.90;;;;;;10249093;29;20238;-77
2020/12/07 00:13:58;;;;;;;47.00;25.40;;;5.80;99.90;;;;;;10279378;28;20719;-76
2020/12/07 00:19:19;;;;;;;45.33;25.33;;;5.90;99.90;;;;;;10272236;28;20192;-76
2020/12/07 00:24:42;;;;;;;47.33;25.73;;;5.90;99.90;;;;;;10270842;28;20578;-76
2020/12/07 00:30:05;;;;;;;44.73;24.43;;;5.80;99.90;;;;;;10272099;28;20215;-76
2020/12/07 00:35:27;;;;;;;48.90;26.53;;;5.90;99.90;;;;;;10266018;28;20215;-75
2020/12/07 00:40:50;;;;;;;46.73;25.90;;;6.20;99.90;;;;;;10269854;28;20614;-76
2020/12/07 00:46:12;;;;;;;48.70;25.50;;;6.40;99.90;;;;;;10274269;28;20281;-77
2020/12/07 00:51:33;;;;;;;46.53;25.23;;;6.20;99.90;;;;;;10270546;28;20873;-76
2020/12/07 00:56:57;;;;;;;45.53;24.47;;;6.10;99.90;;;;;;10267967;28;20236;-76
2020/12/07 01:02:18;;;;;;;44.00;23.97;;;6.10;99.90;;;;;;10269416;28;20215;-77
2020/12/07 01:07:40;;;;;;;44.10;24.60;;;6.00;99.90;;;;;;10265147;28;20216;-77
2020/12/07 01:13:02;;;;;;;49.47;25.47;;;6.20;99.90;;;;;;10268773;28;20674;-77
2020/12/07 01:18:24;;;;;;;53.73;27.07;;;6.30;99.90;;;;;;10266823;28;20296;-77
2020/12/07 01:23:46;;;;;;;55.20;28.33;;;6.20;99.90;;;;;;10270675;28;20224;-76
2020/12/07 01:29:09;;;;;;;54.07;25.73;;;6.20;99.90;;;;;;10273816;28;20212;-77
2020/12/07 01:34:30;;;;;;;45.20;24.70;;;6.10;99.90;;;;;;10275434;28;20211;-77
2020/12/07 01:39:52;;;;;;;49.50;25.50;;;6.00;99.90;;;;;;10274431;28;20192;-77
2020/12/07 01:45:14;;;;;;;42.97;24.33;;;5.90;99.90;;;;;;10273858;28;20246;-76
2020/12/07 01:50:36;;;;;;;48.27;26.00;;;5.80;99.90;;;;;;10278392;28;20592;-77
2020/12/07 01:55:58;;;;;;;44.03;24.20;;;6.00;99.90;;;;;;10275273;28;20701;-76
2020/12/07 02:01:20;;;;;;;43.60;23.63;;;6.20;99.90;;;;;;10272492;28;20204;-77
2020/12/07 02:06:42;;;;;;;40.27;23.30;;;6.00;99.90;;;;;;10274252;28;20209;-77
2020/12/07 02:12:03;;;;;;;36.00;22.70;;;6.10;99.90;;;;;;10272172;28;20200;-77
2020/12/07 02:17:26;;;;;;;36.07;22.23;;;6.00;99.90;;;;;;10275722;28;20216;-77
2020/12/07 02:22:48;;;;;;;38.67;22.07;;;6.20;99.90;;;;;;10274934;28;20197;-77
2020/12/07 02:28:10;;;;;;;38.40;22.13;;;6.20;99.90;;;;;;10273822;28;20208;-77
2020/12/07 02:33:31;;;;;;;30.50;20.40;;;6.10;99.90;;;;;;10274311;28;20208;-76
2020/12/07 02:38:53;;;;;;;30.30;20.87;;;6.00;99.90;;;;;;10275464;28;20673;-76
2020/12/07 02:44:15;;;;;;;31.73;21.70;;;6.50;99.90;;;;;;10272978;28;20562;-76
2020/12/07 02:49:37;;;;;;;35.20;22.57;;;6.50;99.90;;;;;;10275591;28;20287;-77
2020/12/07 02:55:00;;;;;;;33.73;22.67;;;6.70;99.90;;;;;;10271971;28;20212;-77
2020/12/07 03:00:22;;;;;;;32.70;23.23;;;6.70;99.90;;;;;;10273305;28;20211;-77
2020/12/07 03:05:43;;;;;;;31.67;22.20;;;6.70;99.90;;;;;;10281255;28;20220;-77
2020/12/07 03:11:06;;;;;;;29.80;21.30;;;6.60;99.90;;;;;;10291468;28;20227;-77
2020/12/07 03:16:27;;;;;;;32.13;22.50;;;6.60;99.90;;;;;;10290325;28;20760;-77
2020/12/07 03:21:49;;;;;;;29.40;20.47;;;6.60;99.90;;;;;;10290960;28;20240;-77
2020/12/07 03:27:12;;;;;;;33.30;21.00;;;6.60;99.90;;;;;;10289778;28;20932;-76
2020/12/07 03:32:33;;;;;;;29.50;20.80;;;6.40;99.90;;;;;;10286571;28;20275;-76
2020/12/07 03:37:54;;;;;;;27.07;19.20;;;6.50;99.90;;;;;;10290182;28;20670;-76
2020/12/07 03:43:17;;;;;;;27.90;20.33;;;6.50;99.90;;;;;;10290450;28;20223;-77
2020/12/07 03:48:38;;;;;;;26.93;20.63;;;6.60;99.90;;;;;;10290049;28;20805;-76
2020/12/07 03:54:00;;;;;;;25.90;19.27;;;6.40;99.90;;;;;;10288907;28;20219;-77
2020/12/07 03:59:22;;;;;;;26.10;19.37;;;6.30;99.90;;;;;;10289404;28;20192;-76
2020/12/07 04:04:48;;;;;;;26.33;19.50;;;6.30;99.90;;;;;;10287191;28;20577;-77
2020/12/07 04:10:10;;;;;;;26.07;19.73;;;6.40;99.90;;;;;;10290132;28;20689;-77
2020/12/07 04:15:33;;;;;;;25.23;18.80;;;6.30;99.90;;;;;;10288005;28;20270;-77
2020/12/07 04:20:55;;;;;;;26.30;18.50;;;6.30;99.90;;;;;;10289957;28;20199;-77
2020/12/07 04:26:16;;;;;;;27.30;19.10;;;6.30;99.90;;;;;;10288262;28;20228;-77
2020/12/07 04:31:38;;;;;;;25.63;19.37;;;6.30;99.90;;;;;;10287947;28;20634;-78
2020/12/07 04:37:00;;;;;;;26.40;19.43;;;6.40;99.90;;;;;;10289435;28;20704;-77
2020/12/07 04:42:22;;;;;;;27.57;19.53;;;6.40;99.90;;;;;;10289705;28;20242;-78
2020/12/07 04:47:49;;;;;;;24.93;17.97;;;6.50;99.90;;;;;;10288285;28;20326;-78
2020/12/07 04:53:12;;;;;;;24.83;18.23;;;6.50;99.90;;;;;;10286853;28;20207;-76
2020/12/07 04:58:34;;;;;;;25.73;18.97;;;6.50;99.90;;;;;;10285587;28;20290;-78
2020/12/07 05:03:57;;;;;;;25.33;18.50;;;6.50;99.90;;;;;;10284673;28;20226;-77
2020/12/07 05:09:18;;;;;;;27.13;18.50;;;6.50;99.90;;;;;;10271504;28;20218;-77
2020/12/07 05:14:40;;;;;;;24.00;18.50;;;6.50;99.90;;;;;;10277351;28;20586;-77
2020/12/07 05:20:04;;;;;;;23.87;18.30;;;6.50;99.90;;;;;;10287361;28;20215;-77
2020/12/07 05:25:26;;;;;;;25.60;19.23;;;6.70;99.90;;;;;;10286200;28;20744;-77
2020/12/07 05:30:49;;;;;;;27.67;19.97;;;6.90;99.90;;;;;;10280508;28;20239;-77
2020/12/07 05:36:11;;;;;;;25.37;18.43;;;6.80;99.90;;;;;;10286767;28;20219;-77
2020/12/07 05:41:34;;;;;;;27.60;19.00;;;7.00;99.90;;;;;;10287358;28;20665;-76
2020/12/07 05:46:57;;;;;;;24.70;18.97;;;6.90;99.90;;;;;;10260444;28;20227;-75
2020/12/07 05:52:29;;;;;;;23.67;18.17;;;6.70;99.90;;;;;;10286547;28;20237;-77
2020/12/07 05:58:02;;;;;;;25.07;18.50;;;6.50;99.90;;;;;;10286462;28;20617;-75
2020/12/07 06:03:25;;;;;;;28.60;25.27;;;6.40;99.90;;;;;;10281478;28;20514;-79
2020/12/07 06:08:48;;;;;;;26.30;19.23;;;6.80;99.90;;;;;;10282547;28;20220;-83
2020/12/07 06:14:10;;;;;;;22.83;18.20;;;6.50;99.90;;;;;;10304237;28;20274;-84
2020/12/07 06:19:32;;;;;;;22.70;17.37;;;6.50;99.90;;;;;;10304918;28;20192;-85
2020/12/07 06:24:58;;;;;;;24.90;19.10;;;6.50;99.90;;;;;;10303055;28;20216;-78
2020/12/07 06:30:20;;;;;;;21.20;17.20;;;6.50;99.90;;;;;;10309197;28;20760;-82
2020/12/07 06:35:43;;;;;;;27.93;19.53;;;6.60;99.90;;;;;;10312755;28;20278;-82
2020/12/07 06:41:06;;;;;;;27.43;18.27;;;6.60;99.90;;;;;;10308587;28;20247;-83
2020/12/07 06:46:47;;;;;;;24.93;18.73;;;6.80;99.90;;;;;;10304303;28;20224;-82
2020/12/07 06:52:11;;;;;;;26.13;19.67;;;6.60;99.90;;;;;;10302690;28;20212;-82
2020/12/07 06:57:39;;;;;;;25.03;19.17;;;6.60;99.90;;;;;;10299910;28;20674;-82
2020/12/07 07:03:01;;;;;;;23.30;18.67;;;6.60;99.90;;;;;;10264873;28;20193;-83
2020/12/07 07:08:23;;;;;;;29.50;21.27;;;6.50;99.90;;;;;;10267527;29;20208;-82
2020/12/07 07:13:49;;;;;;;29.33;20.93;;;6.50;99.90;;;;;;10266047;28;20227;-83
2020/12/07 07:19:11;;;;;;;31.00;21.97;;;6.40;99.90;;;;;;10287586;28;20199;-82
2020/12/07 07:24:40;;;;;;;28.77;21.17;;;6.40;99.90;;;;;;10303717;28;20230;-81
2020/12/07 07:30:03;;;;;;;32.93;22.53;;;6.40;99.90;;;;;;10297009;28;20219;-81
2020/12/07 07:35:26;;;;;;;33.50;23.63;;;6.30;99.90;;;;;;10308364;28;20218;-82
2020/12/07 07:40:48;;;;;;;33.33;23.77;;;6.30;99.90;;;;;;10265837;28;20192;-82
2020/12/07 07:46:11;;;;;;;36.77;24.37;;;6.30;99.90;;;;;;10298358;28;20228;-82
2020/12/07 08:15:26;;;;;;;40.80;26.53;;;6.40;99.90;;;;;;10293472;28;20211;-82
2020/12/07 08:20:55;;;;;;;40.83;26.23;;;6.30;99.90;;;;;;10293315;28;20354;-82
2020/12/07 08:26:19;;;;;;;38.73;26.30;;;6.20;99.90;;;;;;10298060;28;20346;-82
2020/12/07 08:31:41;;;;;;;40.63;28.00;;;6.30;99.90;;;;;;10298922;28;20292;-83
2020/12/07 08:37:04;;;;;;;41.60;26.83;;;6.20;99.90;;;;;;10299671;28;20219;-82
2020/12/07 08:42:25;;;;;;;39.93;25.77;;;6.10;99.90;;;;;;10300482;28;20617;-83
2020/12/07 08:47:47;;;;;;;44.47;26.83;;;6.20;99.90;;;;;;10258719;28;20276;-82
2020/12/07 08:53:09;;;;;;;42.40;26.63;;;6.20;99.90;;;;;;10289003;28;20231;-83
2020/12/07 08:58:31;;;;;;;42.30;25.87;;;6.30;99.90;;;;;;10298360;28;20211;-83
2020/12/07 09:03:53;;;;;;;39.80;25.33;;;6.20;99.90;;;;;;10299979;28;20216;-82
2020/12/07 09:09:15;;;;;;;39.47;26.27;;;6.20;99.90;;;;;;10299943;28;20310;-82
2020/12/07 09:14:37;;;;;;;47.07;27.60;;;6.40;99.90;;;;;;10298554;28;20227;-82
2020/12/07 09:19:58;;;;;;;44.43;27.53;;;6.40;99.90;;;;;;10300072;28;20664;-82
2020/12/07 09:25:21;;;;;;;43.57;26.37;;;6.40;99.90;;;;;;10305054;28;20221;-81
2020/12/07 09:30:43;;;;;;;42.50;23.67;;;6.30;99.90;;;;;;10340752;28;20211;-82
2020/12/07 09:36:05;;;;;;;40.27;24.20;;;6.20;99.90;;;;;;10321812;28;20235;-82
2020/12/07 09:41:27;;;;;;;39.97;23.93;;;6.10;99.90;;;;;;10298897;28;20684;-82
2020/12/07 09:46:49;;;;;;;40.80;24.70;;;6.20;99.90;;;;;;10339033;28;20647;-82
2020/12/07 09:52:11;;;;;;;43.07;24.37;;;6.10;99.90;;;;;;10335560;28;20251;-81
2020/12/07 09:57:33;;;;;;;45.77;25.53;;;5.90;99.90;;;;;;10332266;28;20294;-81
2020/12/07 10:02:55;;;;;;;47.40;26.93;;;5.90;99.90;;;;;;10333760;28;20191;-81
2020/12/07 10:08:17;;;;;;;42.97;25.23;;;6.10;99.90;;;;;;10298492;28;20580;-82
2020/12/07 10:13:39;;;;;;;37.67;22.27;;;5.90;99.90;;;;;;10304645;28;20228;-82
2020/12/07 10:19:01;;;;;;;38.87;23.33;;;6.00;99.90;;;;;;10300950;28;20263;-83
2020/12/07 10:24:23;;;;;;;30.97;19.47;;;6.10;99.90;;;;;;10302833;28;20215;-83
2020/12/07 10:29:45;;;;;;;31.27;20.43;;;6.20;99.90;;;;;;10270302;28;20218;-83
2020/12/07 10:35:06;;;;;;;28.73;19.43;;;6.20;99.90;;;;;;10307535;28;20308;-84
2020/12/07 10:40:28;;;;;;;27.43;17.43;;;6.00;99.90;;;;;;10303345;28;20242;-83
2020/12/07 10:45:51;;;;;;;20.77;14.43;;;6.10;99.90;;;;;;10306168;28;20242;-84
2020/12/07 10:51:13;;;;;;;19.53;13.47;;;6.10;99.90;;;;;;10302970;28;20267;-83
2020/12/07 10:56:34;;;;;;;23.63;15.30;;;6.20;99.90;;;;;;10302708;28;20215;-84
2020/12/07 11:01:57;;;;;;;18.53;11.97;;;6.30;99.90;;;;;;10301176;28;20192;-81
2020/12/07 11:07:20;;;;;;;14.63;10.23;;;6.30;99.90;;;;;;10297472;28;20227;-81
2020/12/07 11:12:44;;;;;;;14.40;9.87;;;6.30;99.90;;;;;;10300341;28;20211;-80
2020/12/07 11:18:06;;;;;;;14.03;9.37;;;6.20;99.90;;;;;;10297938;28;20282;-81
2020/12/07 11:23:28;;;;;;;10.87;8.07;;;6.50;99.90;;;;;;10297059;28;20624;-84
2020/12/07 11:28:49;;;;;;;12.33;8.13;;;6.30;99.90;;;;;;10298357;28;20224;-81
2020/12/07 11:34:12;;;;;;;8.90;7.23;;;6.30;99.90;;;;;;10294175;28;20223;-80
2020/12/07 11:39:41;;;;;;;8.27;6.23;;;6.20;99.90;;;;;;10294643;28;20199;-79
2020/12/07 11:45:04;;;;;;;8.70;6.23;;;6.30;99.90;;;;;;10295140;28;20570;-83
2020/12/07 11:50:26;;;;;;;7.43;6.03;;;6.30;99.90;;;;;;10293233;28;20223;-81
2020/12/07 11:55:48;;;;;;;6.80;5.33;;;6.40;99.90;;;;;;10277731;28;20208;-82
2020/12/07 12:01:10;;;;;;;6.23;4.83;;;6.60;99.90;;;;;;10294390;28;20200;-83
2020/12/07 12:06:34;;;;;;;5.93;5.00;;;6.40;99.90;;;;;;10292200;28;20882;-84
2020/12/07 12:11:56;;;;;;;6.37;5.00;;;6.40;99.90;;;;;;10300010;28;20243;-84
2020/12/07 12:17:18;;;;;;;5.37;4.87;;;6.60;99.90;;;;;;10299540;28;20537;-83
2020/12/07 12:22:41;;;;;;;5.47;4.87;;;6.60;99.90;;;;;;10291037;28;20192;-82
2020/12/07 12:28:03;;;;;;;6.70;5.80;;;6.60;99.90;;;;;;10293877;28;20203;-83
2020/12/07 12:33:24;;;;;;;5.33;4.83;;;6.70;99.90;;;;;;10259000;28;20283;-82
2020/12/07 12:38:48;;;;;;;6.20;5.60;;;6.50;99.90;;;;;;10262772;28;20196;-84
2020/12/07 12:44:10;;;;;;;7.70;6.03;;;6.60;99.90;;;;;;10273493;28;20231;-84
2020/12/07 12:49:32;;;;;;;6.67;5.37;;;6.40;99.90;;;;;;10298435;28;20837;-81
2020/12/07 12:54:55;;;;;;;7.40;6.60;;;6.30;99.90;;;;;;10297594;28;20278;-83
2020/12/07 13:00:16;;;;;;;8.00;6.70;;;6.30;99.90;;;;;;10300222;28;20192;-85
2020/12/07 13:05:38;;;;;;;7.37;6.10;;;6.40;99.90;;;;;;10298616;28;20230;-84
2020/12/07 13:11:00;;;;;;;6.43;5.40;;;6.50;99.90;;;;;;10301878;28;20226;-84
2020/12/07 13:16:25;;;;;;;7.13;5.47;;;6.40;99.90;;;;;;10286407;28;20225;-85
2020/12/07 13:21:53;;;;;;;7.03;5.97;;;6.40;99.90;;;;;;10310266;28;20244;-84
2020/12/07 13:27:30;;;;;;;6.33;5.60;;;6.40;99.90;;;;;;10311094;28;20227;-86
2020/12/07 13:32:52;;;;;;;6.73;5.27;;;6.50;99.90;;;;;;10311101;28;20226;-85
2020/12/07 13:38:13;;;;;;;7.47;5.97;;;6.60;99.90;;;;;;10302029;28;20199;-85
2020/12/07 13:43:36;;;;;;;6.27;4.90;;;6.70;99.90;;;;;;10315613;28;20235;-85
2020/12/07 13:48:58;;;;;;;5.77;4.73;;;6.50;99.90;;;;;;10347423;28;20267;-86
2020/12/07 13:54:19;;;;;;;6.50;5.30;;;6.60;99.90;;;;;;10308769;28;20216;-84
2020/12/07 13:59:42;;;;;;;6.10;4.70;;;6.50;99.90;;;;;;10303255;28;20183;-83
2020/12/07 14:05:05;;;;;;;5.10;4.60;;;6.40;99.90;;;;;;10302542;28;20220;-82
2020/12/07 14:10:26;;;;;;;5.27;4.30;;;6.30;99.90;;;;;;10301986;28;20247;-83
2020/12/07 14:15:48;;;;;;;5.57;4.70;;;6.50;99.90;;;;;;10297664;28;20211;-82
2020/12/07 14:21:15;;;;;;;7.40;5.90;;;6.40;99.90;;;;;;10304671;28;20228;-83
2020/12/07 14:26:42;;;;;;;5.43;4.93;;;6.40;99.90;;;;;;10307184;28;20223;-82
2020/12/07 14:43:26;;;;;;;4.03;3.50;;;6.50;99.90;;;;;;10314888;28;20290;-81
2020/12/07 14:48:49;;;;;;;3.10;2.80;;;6.30;99.90;;;;;;10300186;28;20776;-82
2020/12/07 14:54:16;;;;;;;3.47;3.17;;;6.30;99.90;;;;;;10298729;28;20220;-82
2020/12/07 15:05:28;;;;;;;4.87;4.33;;;6.30;99.90;;;;;;10279067;28;20212;-82
2020/12/07 15:16:28;;;;;;;4.13;3.73;;;6.50;99.90;;;;;;10309897;28;20580;-84
2020/12/07 15:21:54;;;;;;;3.70;2.97;;;6.50;99.90;;;;;;10270715;28;20192;-83
2020/12/07 15:27:16;;;;;;;3.07;2.77;;;6.60;99.90;;;;;;10300902;28;20290;-82
2020/12/07 15:32:37;;;;;;;3.00;2.60;;;6.60;99.90;;;;;;10296223;28;20219;-84
2020/12/07 15:38:00;;;;;;;3.87;2.53;;;6.60;99.90;;;;;;10296241;28;20215;-84
2020/12/07 15:43:22;;;;;;;2.57;2.07;;;6.60;99.90;;;;;;10294823;28;20698;-82
2020/12/07 15:48:43;;;;;;;2.90;2.60;;;6.50;99.90;;;;;;10281025;28;20215;-84
2020/12/07 15:54:06;;;;;;;5.83;3.07;;;6.50;99.90;;;;;;10257152;28;20212;-86
2020/12/07 15:59:28;;;;;;;4.10;3.07;;;6.60;99.90;;;;;;10270787;28;20222;-85
2020/12/07 16:04:49;;;;;;;2.53;2.33;;;6.60;99.90;;;;;;10295904;28;20228;-83
2020/12/07 16:10:14;;;;;;;2.77;2.43;;;6.50;99.90;;;;;;10257721;28;20681;-81
2020/12/07 16:15:36;;;;;;;3.27;2.50;;;6.50;99.90;;;;;;10280999;28;20220;-83
2020/12/07 16:20:58;;;;;;;4.03;2.77;;;6.50;99.90;;;;;;10282305;28;20578;-84
2020/12/07 16:26:20;;;;;;;3.80;3.30;;;6.40;99.90;;;;;;10294944;28;20223;-84
2020/12/07 16:31:42;;;;;;;7.40;4.90;;;6.40;99.90;;;;;;10299708;28;20216;-84
2020/12/07 16:37:03;;;;;;;6.87;5.13;;;6.40;99.90;;;;;;10296206;28;20219;-83
2020/12/07 16:42:26;;;;;;;3.20;2.90;;;6.30;99.90;;;;;;10277831;28;20673;-84
2020/12/07 16:47:48;;;;;;;3.70;3.40;;;6.40;99.90;;;;;;10283171;28;20290;-85
2020/12/07 16:53:09;;;;;;;3.87;2.77;;;6.30;99.90;;;;;;10294412;28;20241;-84
2020/12/07 16:58:32;;;;;;;3.73;3.00;;;6.30;99.90;;;;;;10329171;28;20514;-82
2020/12/07 17:03:54;;;;;;;3.90;2.90;;;6.40;99.90;;;;;;10283758;28;20292;-81
2020/12/07 17:09:15;;;;;;;4.27;3.20;;;6.40;99.90;;;;;;10262097;28;20323;-83
2020/12/07 17:14:38;;;;;;;3.13;2.83;;;6.30;99.90;;;;;;10290120;28;20255;-82
2020/12/07 17:19:59;;;;;;;3.50;3.20;;;6.40;99.90;;;;;;10300844;28;20211;-82
2020/12/07 17:25:21;;;;;;;3.43;3.13;;;6.50;99.90;;;;;;10290921;28;20222;-81
2020/12/07 17:30:43;;;;;;;3.63;3.20;;;6.40;99.90;;;;;;10292869;28;20309;-81
2020/12/07 17:36:05;;;;;;;3.40;3.10;;;6.30;99.90;;;;;;10290354;28;20871;-83
2020/12/07 17:41:27;;;;;;;4.13;3.73;;;6.30;99.90;;;;;;10284526;28;20255;-81
2020/12/07 17:46:49;;;;;;;5.43;4.30;;;6.40;99.90;;;;;;10289142;28;20601;-82
2020/12/07 17:52:11;;;;;;;4.77;3.40;;;6.50;99.90;;;;;;10294507;28;20294;-85
2020/12/07 17:57:33;;;;;;;4.07;3.47;;;6.40;99.90;;;;;;10312648;28;20219;-86
2020/12/07 18:02:55;;;;;;;3.53;3.23;;;6.50;99.90;;;;;;10336119;28;20191;-85
2020/12/07 18:08:17;;;;;;;4.20;3.80;;;6.30;99.90;;;;;;10312746;28;20242;-85
2020/12/07 18:13:39;;;;;;;4.17;3.47;;;6.40;99.90;;;;;;10302769;28;20251;-81
2020/12/07 18:19:02;;;;;;;4.87;3.03;;;6.40;99.90;;;;;;10309156;28;20192;-82
2020/12/07 18:24:24;;;;;;;3.93;3.47;;;6.50;99.90;;;;;;10301373;28;20216;-83
2020/12/07 18:29:46;;;;;;;4.10;3.20;;;6.50;99.90;;;;;;10306299;28;20231;-84
2020/12/07 18:35:08;;;;;;;4.67;3.17;;;6.50;99.90;;;;;;10302450;28;20227;-85
2020/12/07 18:40:30;;;;;;;4.17;3.63;;;6.40;99.90;;;;;;10297712;28;20203;-84
2020/12/07 18:45:52;;;;;;;4.37;3.17;;;6.50;99.90;;;;;;10312310;28;20235;-82
2020/12/07 18:51:14;;;;;;;8.57;4.03;;;6.40;99.90;;;;;;10304452;28;20278;-83
2020/12/07 18:56:36;;;;;;;6.60;4.00;;;6.30;99.90;;;;;;10301858;28;20258;-83
2020/12/07 19:01:57;;;;;;;6.97;4.80;;;6.30;99.90;;;;;;10347585;28;20223;-83
2020/12/07 19:07:20;;;;;;;4.57;3.63;;;6.30;99.90;;;;;;10318266;28;20251;-80
2020/12/07 19:12:42;;;;;;;4.90;3.23;;;6.40;99.90;;;;;;10303805;28;20286;-83
2020/12/07 19:18:03;;;;;;;7.70;3.50;;;6.30;99.90;;;;;;10300479;28;20200;-83
2020/12/07 19:23:27;;;;;;;7.00;4.70;;;6.40;99.90;;;;;;10283406;28;20215;-82
2020/12/07 19:28:49;;;;;;;6.03;4.20;;;6.40;99.90;;;;;;10299287;28;20207;-82
2020/12/07 19:34:12;;;;;;;7.77;3.60;;;6.40;99.90;;;;;;10299902;28;20215;-82
2020/12/07 19:39:35;;;;;;;5.03;3.83;;;6.30;99.90;;;;;;10292538;28;20189;-83
2020/12/07 19:44:56;;;;;;;5.43;3.70;;;6.30;99.90;;;;;;10276058;28;20224;-83
2020/12/07 19:50:18;;;;;;;4.80;3.30;;;6.20;99.90;;;;;;10275318;28;20220;-84
2020/12/07 19:55:41;;;;;;;6.37;3.40;;;6.30;99.90;;;;;;10280541;28;20302;-86
2020/12/07 20:01:03;;;;;;;7.73;4.30;;;6.30;99.90;;;;;;10295522;28;20195;-83
2020/12/07 20:06:28;;;;;;;5.83;4.10;;;6.20;99.90;;;;;;10283334;28;20283;-82
2020/12/07 20:11:50;;;;;;;4.43;3.80;;;6.30;99.90;;;;;;10258074;29;20224;-81
2020/12/07 20:17:13;;;;;;;5.43;4.00;;;6.20;99.90;;;;;;10267698;28;20270;-81
2020/12/07 20:22:36;;;;;;;4.93;4.20;;;6.10;99.90;;;;;;10280734;28;20210;-81
2020/12/07 20:27:58;;;;;;;5.17;4.20;;;5.90;99.90;;;;;;10273860;28;20243;-82
2020/12/07 20:33:20;;;;;;;4.07;3.67;;;6.00;99.90;;;;;;10295541;28;20669;-81
2020/12/07 20:38:42;;;;;;;3.67;3.37;;;5.90;99.90;;;;;;10312165;28;20191;-81
2020/12/07 20:44:04;;;;;;;4.33;3.70;;;6.10;99.90;;;;;;10292637;28;20225;-80
2020/12/07 20:49:26;;;;;;;3.93;3.53;;;6.10;99.90;;;;;;10291812;28;20223;-81
2020/12/07 20:54:47;;;;;;;4.03;3.60;;;5.90;99.90;;;;;;10295100;28;20227;-81
2020/12/07 21:00:10;;;;;;;4.77;3.87;;;5.90;99.90;;;;;;10290189;28;20256;-80
2020/12/07 21:05:31;;;;;;;4.70;4.00;;;6.00;99.90;;;;;;10255229;28;20219;-81
2020/12/07 21:10:53;;;;;;;4.97;4.47;;;6.00;99.90;;;;;;10292380;28;20271;-81
2020/12/07 21:16:20;;;;;;;4.80;4.30;;;6.00;99.90;;;;;;10294057;28;20227;-81
2020/12/07 21:21:43;;;;;;;9.23;4.43;;;6.00;99.90;;;;;;10292565;28;20228;-81
2020/12/07 21:27:05;;;;;;;5.10;4.60;;;5.90;99.90;;;;;;10295650;28;20309;-83
2020/12/07 21:32:27;;;;;;;4.60;4.00;;;5.90;99.90;;;;;;10301399;28;20219;-81
2020/12/07 21:37:54;;;;;;;5.47;4.97;;;5.80;99.90;;;;;;10289759;28;20258;-81
2020/12/07 21:43:15;;;;;;;6.87;4.17;;;5.80;99.90;;;;;;10309354;28;20254;-83
2020/12/07 21:48:38;;;;;;;5.47;4.60;;;5.80;99.90;;;;;;10309890;28;20196;-83
2020/12/07 21:54:00;;;;;;;6.10;4.73;;;5.80;99.90;;;;;;10282781;28;20225;-82
2020/12/07 21:59:21;;;;;;;5.53;4.63;;;5.90;99.90;;;;;;10307445;28;20661;-81
2020/12/07 22:04:44;;;;;;;4.90;4.40;;;6.00;99.90;;;;;;10308211;28;20216;-82
2020/12/07 22:10:05;;;;;;;5.13;4.63;;;6.00;99.90;;;;;;10308795;28;20212;-82
2020/12/07 22:15:27;;;;;;;4.87;4.37;;;6.10;99.90;;;;;;10307703;28;20811;-81
2020/12/07 22:20:49;;;;;;;4.97;4.47;;;6.00;99.90;;;;;;10308133;28;20270;-82
2020/12/07 22:26:11;;;;;;;5.63;4.93;;;5.90;99.90;;;;;;10276391;28;20219;-82
2020/12/07 22:31:33;;;;;;;5.23;4.70;;;6.00;99.90;;;;;;10283424;28;20224;-81
2020/12/07 22:36:55;;;;;;;4.90;4.40;;;5.90;99.90;;;;;;10307488;28;20220;-82
2020/12/07 22:42:17;;;;;;;5.27;4.50;;;5.90;99.90;;;;;;10306729;28;20196;-81
2020/12/07 22:47:38;;;;;;;5.63;5.00;;;5.90;99.90;;;;;;10299236;28;20231;-81
2020/12/07 22:53:01;;;;;;;5.13;4.63;;;5.90;99.90;;;;;;10288417;28;20216;-81
2020/12/07 22:58:22;;;;;;;5.80;5.13;;;5.80;99.90;;;;;;10306910;28;20243;-81
2020/12/07 23:03:44;;;;;;;6.10;5.10;;;5.70;99.90;;;;;;10295343;28;20699;-81
2020/12/07 23:09:06;;;;;;;6.20;5.00;;;5.80;99.90;;;;;;10264724;29;20196;-82
2020/12/07 23:14:28;;;;;;;5.80;4.97;;;5.80;99.90;;;;;;10266703;28;20287;-81
2020/12/07 23:19:49;;;;;;;5.77;5.17;;;6.10;99.90;;;;;;10291243;28;20199;-81
2020/12/07 23:25:12;;;;;;;6.43;5.73;;;6.00;99.90;;;;;;10271812;28;20639;-82
2020/12/07 23:30:34;;;;;;;7.30;5.23;;;6.00;99.90;;;;;;10272917;28;20271;-81
2020/12/07 23:35:56;;;;;;;7.67;5.30;;;6.10;99.90;;;;;;10302603;28;20846;-81
2020/12/07 23:41:18;;;;;;;5.70;5.17;;;6.20;99.90;;;;;;10307006;28;20585;-82
2020/12/07 23:46:40;;;;;;;5.73;5.23;;;6.20;99.90;;;;;;10304178;28;20299;-81
2020/12/07 23:52:01;;;;;;;5.87;5.10;;;6.10;99.90;;;;;;10306281;28;20625;-81
2020/12/07 23:57:24;;;;;;;5.47;4.90;;;6.10;99.90;;;;;;10309108;28;20764;-82
